Austin, Texas
Traffic Map
Current Weather Conditions
Austin, Texas
Overcast
Overcast
24°
Feels Like: 24°
Wind Chill: 24° Ceiling: 2200
Heat Index: 24° Visibility: 10mi
Dew Point: 22° Wind: 6mph
Humidity: 87% Direction: ° ()
Pressure: 30.07in Gusts: 0mph
Raw Report DataKATT 280551Z AUTO VRB05KT 10SM SCT013 OVC022 24/22 A3007 RMK AO2 SLP170 T02440222 10278 20244 402940194 50011
Traffic Incident Summary
Active as of:
Severity:
Category:
InformationThere was an issue retrieving the traffic information for this location. Please try a different location or try again shortly.
Advertisements
Track Severe Weather on mobile